createdAt,value
2023-01-12T00:00:30.637Z,86.84
2023-01-12T00:01:30.543Z,86.12
2023-01-12T00:02:30.550Z,86.80
2023-01-12T00:03:30.519Z,86.60
2023-01-12T00:04:30.610Z,87.21
2023-01-12T00:05:30.516Z,86.80
2023-01-12T00:06:30.495Z,86.80
2023-01-12T00:07:30.474Z,86.80
2023-01-12T00:08:30.468Z,86.84
2023-01-12T00:09:30.456Z,86.84
2023-01-12T00:10:30.474Z,86.94
2023-01-12T00:11:30.424Z,86.90
2023-01-12T00:12:30.426Z,87.11
2023-01-12T00:13:30.410Z,86.94
2023-01-12T00:14:30.394Z,87.32
2023-01-12T00:15:30.411Z,87.21
2023-01-12T00:16:30.389Z,87.63
2023-01-12T00:17:30.367Z,87.66
2023-01-12T00:18:30.344Z,87.46
2023-01-12T00:19:30.347Z,87.66
2023-01-12T00:20:30.357Z,87.52
2023-01-12T00:21:30.338Z,87.83
2023-01-12T00:22:30.310Z,87.77
2023-01-12T00:23:30.311Z,88.29
2023-01-12T00:24:30.273Z,88.35
2023-01-12T00:25:31.299Z,88.18
2023-01-12T00:26:30.264Z,88.18
2023-01-12T00:27:30.263Z,88.29
2023-01-12T00:28:30.240Z,88.39
2023-01-12T00:29:31.229Z,88.18
2023-01-12T00:30:30.226Z,88.18
2023-01-12T00:31:30.256Z,88.29
2023-01-12T00:32:30.217Z,88.14
2023-01-12T00:33:30.178Z,88.29
2023-01-12T00:34:30.175Z,88.29
2023-01-12T00:35:30.186Z,88.18
2023-01-12T00:36:30.163Z,87.87
2023-01-12T00:37:30.130Z,88.08
2023-01-12T00:38:30.135Z,88.29
2023-01-12T00:39:30.128Z,88.24
2023-01-12T00:40:30.139Z,87.83
2023-01-12T00:41:30.171Z,87.93
2023-01-12T00:42:30.093Z,87.52
2023-01-12T00:43:30.092Z,87.83
2023-01-12T00:44:30.079Z,87.87
2023-01-12T00:45:30.083Z,87.83
2023-01-12T00:46:30.111Z,87.93
2023-01-12T00:47:30.036Z,88.24
2023-01-12T00:48:30.079Z,88.24
2023-01-12T00:49:30.010Z,88.29
2023-01-12T00:50:30.053Z,88.24
2023-01-12T00:51:30.004Z,88.49
2023-01-12T00:52:31.409Z,88.35
2023-01-12T00:53:30.969Z,87.98
2023-01-12T00:54:29.970Z,88.08
2023-01-12T00:55:29.973Z,88.76
2023-01-12T00:56:29.934Z,88.76
2023-01-12T00:57:29.937Z,89.01
2023-01-12T00:58:29.930Z,88.90
2023-01-12T00:59:29.909Z,89.32
2023-01-12T01:00:29.936Z,88.80
2023-01-12T01:01:30.035Z,88.80
2023-01-12T01:02:29.992Z,89.42
2023-01-12T01:03:29.875Z,88.80
2023-01-12T01:04:29.868Z,88.90
2023-01-12T01:05:29.867Z,88.90
2023-01-12T01:06:29.838Z,89.17
2023-01-12T01:07:29.829Z,89.01
2023-01-12T01:08:29.820Z,89.32
2023-01-12T01:09:29.787Z,89.48
2023-01-12T01:10:29.806Z,89.48
2023-01-12T01:11:29.777Z,89.83
2023-01-12T01:12:29.769Z,89.73
2023-01-12T01:13:29.758Z,89.62
2023-01-12T01:14:29.751Z,89.83
2023-01-12T01:15:29.769Z,89.83
2023-01-12T01:16:29.744Z,89.62
2023-01-12T01:17:29.722Z,89.62
2023-01-12T01:18:29.709Z,89.83
2023-01-12T01:19:29.702Z,90.04
2023-01-12T01:20:29.711Z,90.14
2023-01-12T01:21:29.670Z,89.52
2023-01-12T01:22:29.658Z,89.83
2023-01-12T01:23:29.656Z,89.94
2023-01-12T01:24:29.659Z,90.04
2023-01-12T01:25:29.636Z,90.04
2023-01-12T01:26:29.626Z,90.25
2023-01-12T01:27:29.607Z,89.94
2023-01-12T01:28:29.611Z,90.04
2023-01-12T01:29:29.588Z,89.89
2023-01-12T01:30:29.617Z,89.83
2023-01-12T01:31:29.656Z,90.14
2023-01-12T01:32:29.562Z,89.83
2023-01-12T01:33:29.547Z,90.14
2023-01-12T01:34:29.535Z,90.04
2023-01-12T01:35:29.542Z,90.04
2023-01-12T01:36:29.513Z,90.14
2023-01-12T01:37:29.499Z,89.89
2023-01-12T01:38:29.492Z,89.83
2023-01-12T01:39:29.483Z,90.25
2023-01-12T01:40:29.496Z,89.94
2023-01-12T01:41:29.447Z,89.83
2023-01-12T01:42:29.469Z,90.04
2023-01-12T01:43:29.509Z,90.14
2023-01-12T01:44:29.448Z,90.04
2023-01-12T01:45:29.426Z,89.94
2023-01-12T01:46:29.478Z,89.94
2023-01-12T01:47:29.396Z,90.10
2023-01-12T01:48:29.385Z,89.94
2023-01-12T01:49:29.376Z,89.89
2023-01-12T01:50:29.376Z,89.89
2023-01-12T01:51:29.374Z,90.04
2023-01-12T01:52:29.341Z,89.89
2023-01-12T01:53:29.326Z,90.00
2023-01-12T01:54:29.309Z,89.94
2023-01-12T01:55:29.326Z,90.04
2023-01-12T01:56:29.294Z,90.10
2023-01-12T01:57:29.282Z,90.20
2023-01-12T01:58:29.271Z,90.14
2023-01-12T01:59:29.305Z,90.55
2023-01-12T02:00:29.268Z,90.41
2023-01-12T02:01:29.330Z,90.25
2023-01-12T02:02:29.243Z,90.45
2023-01-12T02:03:30.592Z,90.41
2023-01-12T02:04:29.202Z,90.55
2023-01-12T02:05:29.204Z,90.45
2023-01-12T02:06:29.179Z,90.66
2023-01-12T02:07:29.167Z,90.61
2023-01-12T02:08:29.143Z,90.61
2023-01-12T02:09:30.142Z,90.97
2023-01-12T02:10:29.152Z,90.82
2023-01-12T02:11:29.129Z,90.45
2023-01-12T02:12:29.108Z,90.20
2023-01-12T02:13:29.094Z,90.31
2023-01-12T02:14:29.088Z,90.61
2023-01-12T02:15:29.111Z,91.17
2023-01-12T02:16:29.163Z,91.89
2023-01-12T02:17:29.047Z,91.54
2023-01-12T02:18:29.044Z,91.54
2023-01-12T02:19:29.027Z,91.79
2023-01-12T02:20:29.055Z,91.44
2023-01-12T02:21:28.995Z,91.48
2023-01-12T02:22:28.996Z,91.13
2023-01-12T02:23:28.990Z,91.38
2023-01-12T02:24:28.977Z,91.38
2023-01-12T02:25:28.971Z,91.07
2023-01-12T02:26:28.995Z,91.13
2023-01-12T02:27:28.947Z,91.34
2023-01-12T02:28:28.932Z,91.13
2023-01-12T02:29:28.937Z,91.48
2023-01-12T02:30:28.933Z,91.24
2023-01-12T02:31:29.079Z,91.03
2023-01-12T02:32:28.894Z,90.92
2023-01-12T02:33:28.878Z,91.13
2023-01-12T02:34:28.879Z,91.07
2023-01-12T02:35:28.877Z,91.34
2023-01-12T02:36:28.832Z,91.03
2023-01-12T02:37:28.833Z,91.24
2023-01-12T02:38:28.823Z,91.03
2023-01-12T02:39:28.804Z,91.03
2023-01-12T02:40:28.821Z,91.34
2023-01-12T02:41:28.794Z,91.13
2023-01-12T02:42:28.780Z,91.03
2023-01-12T02:43:28.767Z,90.97
2023-01-12T02:44:28.755Z,90.92
2023-01-12T02:45:28.765Z,91.34
2023-01-12T02:46:28.774Z,91.44
2023-01-12T02:47:28.724Z,91.64
2023-01-12T02:48:28.713Z,91.64
2023-01-12T02:49:28.699Z,90.92
2023-01-12T02:50:28.707Z,91.44
2023-01-12T02:51:28.671Z,91.34
2023-01-12T02:52:28.657Z,91.64
2023-01-12T02:53:28.653Z,91.44
2023-01-12T02:54:28.654Z,91.44
2023-01-12T02:55:28.669Z,91.64
2023-01-12T02:56:28.612Z,91.64
2023-01-12T02:57:28.604Z,91.75
2023-01-12T02:58:28.594Z,91.64
2023-01-12T02:59:28.583Z,91.75
2023-01-12T03:00:28.596Z,91.85
2023-01-12T03:01:28.631Z,91.71
2023-01-12T03:02:28.547Z,91.96
2023-01-12T03:03:28.554Z,91.54
2023-01-12T03:04:28.519Z,91.75
2023-01-12T03:05:28.542Z,91.75
2023-01-12T03:06:28.504Z,91.64
2023-01-12T03:07:28.498Z,91.34
2023-01-12T03:08:28.476Z,91.64
2023-01-12T03:09:28.475Z,91.75
2023-01-12T03:10:28.467Z,91.64
2023-01-12T03:11:28.474Z,91.64
2023-01-12T03:12:28.442Z,91.96
2023-01-12T03:13:28.429Z,91.34
2023-01-12T03:14:28.420Z,91.64
2023-01-12T03:15:28.432Z,91.64
2023-01-12T03:16:28.416Z,92.16
2023-01-12T03:17:28.390Z,92.16
2023-01-12T03:18:28.383Z,91.50
2023-01-12T03:19:28.359Z,91.96
2023-01-12T03:20:28.343Z,92.06
2023-01-12T03:21:28.369Z,91.96
2023-01-12T03:22:28.329Z,91.81
2023-01-12T03:23:28.348Z,91.91
2023-01-12T03:24:28.300Z,91.75
2023-01-12T03:25:28.296Z,91.81
2023-01-12T03:26:28.304Z,91.75
2023-01-12T03:27:28.266Z,91.50
2023-01-12T03:28:28.258Z,91.81
2023-01-12T03:29:28.256Z,91.71
2023-01-12T03:30:28.235Z,92.02
2023-01-12T03:31:28.291Z,92.33
2023-01-12T03:32:28.209Z,92.12
2023-01-12T03:33:28.203Z,92.22
2023-01-12T03:34:28.195Z,92.33
2023-01-12T03:35:28.180Z,92.37
2023-01-12T03:36:28.186Z,92.63
2023-01-12T03:37:28.209Z,92.53
2023-01-12T03:38:28.146Z,92.68
2023-01-12T03:39:28.138Z,93.15
2023-01-12T03:40:28.117Z,92.94
2023-01-12T03:41:28.131Z,92.94
2023-01-12T03:42:28.109Z,93.15
2023-01-12T03:43:28.090Z,93.15
2023-01-12T03:44:28.064Z,93.15
2023-01-12T03:45:28.067Z,93.25
2023-01-12T03:46:29.083Z,93.15
2023-01-12T03:47:28.051Z,92.63
2023-01-12T03:48:28.025Z,93.15
2023-01-12T03:49:28.044Z,92.43
2023-01-12T03:50:28.015Z,92.22
2023-01-12T03:51:28.023Z,92.22
2023-01-12T03:52:27.999Z,92.22
2023-01-12T03:53:27.983Z,92.43
2023-01-12T03:54:27.965Z,92.43
2023-01-12T03:55:27.963Z,92.33
2023-01-12T03:56:27.983Z,91.91
2023-01-12T03:57:27.935Z,92.22
2023-01-12T03:58:27.929Z,92.33
2023-01-12T03:59:27.923Z,92.12
2023-01-12T04:00:27.919Z,92.43
2023-01-12T04:01:27.971Z,92.43
2023-01-12T04:02:27.888Z,92.43
2023-01-12T04:03:27.936Z,93.25
2023-01-12T04:04:27.916Z,93.15
2023-01-12T04:05:27.850Z,93.05
2023-01-12T04:06:27.863Z,92.84
2023-01-12T04:07:27.839Z,92.84
2023-01-12T04:08:27.814Z,92.33
2023-01-12T04:09:27.809Z,92.53
2023-01-12T04:10:27.799Z,92.94
2023-01-12T04:11:27.810Z,92.33
2023-01-12T04:12:27.767Z,92.43
2023-01-12T04:13:27.769Z,92.43
2023-01-12T04:14:27.753Z,92.63
2023-01-12T04:15:27.753Z,92.43
2023-01-12T04:16:27.814Z,92.53
2023-01-12T04:17:27.718Z,92.33
2023-01-12T04:18:27.708Z,92.94
2023-01-12T04:19:27.695Z,92.84
2023-01-12T04:20:27.679Z,92.84
2023-01-12T04:21:27.692Z,92.53
2023-01-12T04:22:27.661Z,92.22
2023-01-12T04:23:27.663Z,92.33
2023-01-12T04:24:27.634Z,92.53
2023-01-12T04:25:27.637Z,92.33
2023-01-12T04:26:27.646Z,92.12
2023-01-12T04:27:27.604Z,92.08
2023-01-12T04:28:27.589Z,91.91
2023-01-12T04:29:27.582Z,91.91
2023-01-12T04:30:27.576Z,92.12
2023-01-12T04:31:27.595Z,91.66
2023-01-12T04:32:27.544Z,91.36
2023-01-12T04:33:27.531Z,91.71
2023-01-12T04:34:27.522Z,91.60
2023-01-12T04:35:27.534Z,92.02
2023-01-12T04:36:27.514Z,91.56
2023-01-12T04:37:27.496Z,91.77
2023-01-12T04:38:27.481Z,91.66
2023-01-12T04:39:27.479Z,92.08
2023-01-12T04:40:27.469Z,91.77
2023-01-12T04:41:27.473Z,91.91
2023-01-12T04:42:27.443Z,91.60
2023-01-12T04:43:27.427Z,91.56
2023-01-12T04:44:27.414Z,91.81
2023-01-12T04:45:27.412Z,91.56
2023-01-12T04:46:27.417Z,91.40
2023-01-12T04:47:27.388Z,91.56
2023-01-12T04:48:27.374Z,91.05
2023-01-12T04:49:27.363Z,91.77
2023-01-12T04:50:27.348Z,91.66
2023-01-12T04:51:27.356Z,91.36
2023-01-12T04:52:27.335Z,91.30
2023-01-12T04:53:27.444Z,91.46
2023-01-12T04:54:27.308Z,91.66
2023-01-12T04:55:27.294Z,91.46
2023-01-12T04:56:27.321Z,91.77
2023-01-12T04:57:27.290Z,91.97
2023-01-12T04:58:27.264Z,91.15
2023-01-12T04:59:27.246Z,91.15
2023-01-12T05:00:27.243Z,91.46
2023-01-12T05:01:27.416Z,91.66
2023-01-12T05:02:27.221Z,91.36
2023-01-12T05:03:27.214Z,91.56
2023-01-12T05:04:27.265Z,91.77
2023-01-12T05:05:27.183Z,91.56
2023-01-12T05:06:27.185Z,91.66
2023-01-12T05:07:27.163Z,92.08
2023-01-12T05:08:27.186Z,91.77
2023-01-12T05:09:27.142Z,92.18
2023-01-12T05:10:27.147Z,91.25
2023-01-12T05:11:27.129Z,91.46
2023-01-12T05:12:27.110Z,91.56
2023-01-12T05:13:27.097Z,91.56
2023-01-12T05:14:27.097Z,91.52
2023-01-12T05:15:27.071Z,91.66
2023-01-12T05:16:27.096Z,91.15
2023-01-12T05:17:27.056Z,91.52
2023-01-12T05:18:27.057Z,91.46
2023-01-12T05:19:27.046Z,91.42
2023-01-12T05:20:27.032Z,91.25
2023-01-12T05:21:27.051Z,91.52
2023-01-12T05:22:27.004Z,91.66
2023-01-12T05:23:26.996Z,91.66
2023-01-12T05:24:27.088Z,91.42
2023-01-12T05:25:26.990Z,91.66
2023-01-12T05:26:26.976Z,91.31
2023-01-12T05:27:26.945Z,91.62
2023-01-12T05:28:26.940Z,91.21
2023-01-12T05:29:26.935Z,91.42
2023-01-12T05:30:26.967Z,91.52
2023-01-12T05:31:26.923Z,91.31
2023-01-12T05:32:26.893Z,91.46
2023-01-12T05:33:26.888Z,91.97
2023-01-12T05:34:26.869Z,91.72
2023-01-12T05:35:26.888Z,91.25
2023-01-12T05:36:26.873Z,91.77
2023-01-12T05:37:26.872Z,91.77
2023-01-12T05:38:26.822Z,90.90
2023-01-12T05:39:26.828Z,91.21
2023-01-12T05:40:26.811Z,91.21
2023-01-12T05:41:26.819Z,91.21
2023-01-12T05:42:26.776Z,90.80
2023-01-12T05:43:26.795Z,90.80
2023-01-12T05:44:26.766Z,90.90
2023-01-12T05:45:26.794Z,91.00
2023-01-12T05:46:26.810Z,91.00
2023-01-12T05:47:26.737Z,90.94
2023-01-12T05:48:26.725Z,90.90
2023-01-12T05:49:26.706Z,90.80
2023-01-12T05:50:27.691Z,90.80
2023-01-12T05:51:26.729Z,90.80
2023-01-12T05:52:26.690Z,91.00
2023-01-12T05:53:26.671Z,91.25
2023-01-12T05:54:26.655Z,91.11
2023-01-12T05:55:26.655Z,91.00
2023-01-12T05:56:26.758Z,91.52
2023-01-12T05:57:26.631Z,91.42
2023-01-12T05:58:26.615Z,90.90
2023-01-12T05:59:26.607Z,91.66
2023-01-12T06:00:26.605Z,91.00
2023-01-12T06:01:26.705Z,91.62
2023-01-12T06:02:26.633Z,91.52
2023-01-12T06:03:27.902Z,91.11
2023-01-12T06:04:27.623Z,91.00
2023-01-12T06:05:26.549Z,90.80
2023-01-12T06:06:26.548Z,90.90
2023-01-12T06:07:26.519Z,91.00
2023-01-12T06:08:26.509Z,91.00
2023-01-12T06:09:26.507Z,91.11
2023-01-12T06:10:26.488Z,91.21
2023-01-12T06:11:26.505Z,91.11
2023-01-12T06:12:26.467Z,91.21
2023-01-12T06:13:26.463Z,91.31
2023-01-12T06:14:26.447Z,91.42
2023-01-12T06:15:26.447Z,91.42
2023-01-12T06:16:26.427Z,91.42
2023-01-12T06:17:26.441Z,91.00
2023-01-12T06:18:26.388Z,91.21
2023-01-12T06:19:26.408Z,91.00
2023-01-12T06:20:26.378Z,90.80
2023-01-12T06:21:26.367Z,91.11
2023-01-12T06:22:26.378Z,91.21
2023-01-12T06:23:35.302Z,91.42
2023-01-12T06:24:27.345Z,91.31
2023-01-12T06:25:58.229Z,91.52
2023-01-12T06:26:26.313Z,91.42
2023-01-12T06:27:26.329Z,91.21
2023-01-12T06:28:26.292Z,91.00
2023-01-12T06:29:26.278Z,90.80
2023-01-12T06:30:26.272Z,91.00
2023-01-12T06:31:26.301Z,90.59
2023-01-12T06:32:26.272Z,90.43
2023-01-12T06:33:26.242Z,90.49
2023-01-12T06:34:26.222Z,90.08
2023-01-12T06:35:26.220Z,90.39
2023-01-12T06:36:26.204Z,90.28
2023-01-12T06:37:26.207Z,90.59
2023-01-12T06:38:26.174Z,90.03
2023-01-12T06:39:26.167Z,90.18
2023-01-12T06:40:26.157Z,90.39
2023-01-12T06:41:26.139Z,90.28
2023-01-12T06:42:26.152Z,90.28
2023-01-12T06:43:26.123Z,90.34
2023-01-12T06:44:26.184Z,90.28
2023-01-12T06:45:27.105Z,90.39
2023-01-12T06:46:26.172Z,90.08
2023-01-12T06:47:26.103Z,90.39
2023-01-12T06:48:26.099Z,90.39
2023-01-12T06:49:26.062Z,90.28
2023-01-12T06:50:26.044Z,90.24
2023-01-12T06:51:26.066Z,90.39
2023-01-12T06:52:26.097Z,90.39
2023-01-12T06:53:26.018Z,90.39
2023-01-12T06:54:26.008Z,90.28
2023-01-12T06:55:25.997Z,90.34
2023-01-12T06:56:25.999Z,90.55
2023-01-12T06:57:25.991Z,90.39
2023-01-12T06:58:25.967Z,90.75
2023-01-12T06:59:25.952Z,91.72
2023-01-12T07:00:25.969Z,91.62
2023-01-12T07:01:25.997Z,91.21
2023-01-12T07:02:25.937Z,91.00
2023-01-12T07:03:25.916Z,91.21
2023-01-12T07:04:25.967Z,91.31
2023-01-12T07:05:25.880Z,91.00
2023-01-12T07:06:25.884Z,91.00
2023-01-12T07:07:25.889Z,90.80
2023-01-12T07:08:25.856Z,90.80
2023-01-12T07:09:25.855Z,91.00
2023-01-12T07:10:25.840Z,91.00
2023-01-12T07:11:25.833Z,91.21
2023-01-12T07:12:25.837Z,91.72
2023-01-12T07:13:25.801Z,91.21
2023-01-12T07:14:25.805Z,91.62
2023-01-12T07:15:25.785Z,91.52
2023-01-12T07:16:25.774Z,91.52
2023-01-12T07:17:25.777Z,91.83
2023-01-12T07:18:25.744Z,91.62
2023-01-12T07:19:25.747Z,91.72
2023-01-12T07:20:25.728Z,92.14
2023-01-12T07:21:25.712Z,92.55
2023-01-12T07:22:25.729Z,92.96
2023-01-12T07:23:25.702Z,92.86
2023-01-12T07:24:25.691Z,92.24
2023-01-12T07:25:25.669Z,92.34
2023-01-12T07:26:25.679Z,92.65
2023-01-12T07:27:25.684Z,92.55
2023-01-12T07:28:25.641Z,92.96
2023-01-12T07:29:25.624Z,92.86
2023-01-12T07:30:25.633Z,92.34
2023-01-12T07:31:25.667Z,93.06
2023-01-12T07:32:25.616Z,93.31
2023-01-12T07:33:25.587Z,93.27
2023-01-12T07:34:25.595Z,93.41
2023-01-12T07:35:25.572Z,93.41
2023-01-12T07:36:25.581Z,93.48
2023-01-12T07:37:25.568Z,93.16
2023-01-12T07:38:25.537Z,93.52
2023-01-12T07:39:25.523Z,93.31
2023-01-12T07:40:25.522Z,93.16
2023-01-12T07:41:25.522Z,93.31
2023-01-12T07:42:25.512Z,93.79
2023-01-12T07:43:25.496Z,94.30
2023-01-12T07:44:25.476Z,93.48
2023-01-12T07:45:25.470Z,93.68
2023-01-12T07:46:25.536Z,94.51
2023-01-12T07:47:25.464Z,94.51
2023-01-12T07:48:25.421Z,94.51
2023-01-12T07:49:25.415Z,94.60
2023-01-12T07:50:25.409Z,94.55
2023-01-12T07:51:25.392Z,94.40
2023-01-12T07:52:25.404Z,94.65
2023-01-12T07:53:25.362Z,94.60
2023-01-12T07:54:25.362Z,94.40
2023-01-12T07:55:25.338Z,94.20
2023-01-12T07:56:25.339Z,94.13
2023-01-12T07:57:25.361Z,94.09
2023-01-12T07:58:25.328Z,94.09
2023-01-12T07:59:25.300Z,94.24
2023-01-12T08:00:25.328Z,94.40
2023-01-12T08:01:25.414Z,94.40
2023-01-12T08:02:25.293Z,94.24
2023-01-12T08:03:25.265Z,94.45
2023-01-12T08:04:25.285Z,94.55
2023-01-12T08:05:25.288Z,94.51
2023-01-12T08:06:25.242Z,94.55
2023-01-12T08:07:25.248Z,94.51
2023-01-12T08:08:25.239Z,94.92
2023-01-12T08:09:25.200Z,94.55
2023-01-12T08:10:25.185Z,94.24
2023-01-12T08:11:25.172Z,94.40
2023-01-12T08:12:25.232Z,94.40
2023-01-12T08:13:25.150Z,94.65
2023-01-12T08:14:25.135Z,94.40
2023-01-12T08:15:25.163Z,94.34
2023-01-12T08:16:25.179Z,94.30
2023-01-12T08:17:25.183Z,94.45
2023-01-12T08:18:25.090Z,94.60
2023-01-12T08:19:25.080Z,94.60
2023-01-12T08:20:25.071Z,93.99
2023-01-12T08:21:25.065Z,94.30
2023-01-12T08:22:25.068Z,94.51
2023-01-12T08:23:25.038Z,94.81
2023-01-12T08:24:25.027Z,94.24
2023-01-12T08:25:25.001Z,94.20
2023-01-12T08:26:25.008Z,94.40
2023-01-12T08:27:25.023Z,94.20
2023-01-12T08:28:24.982Z,94.30
2023-01-12T08:29:24.971Z,94.40
2023-01-12T08:30:24.954Z,94.20
2023-01-12T08:31:25.066Z,94.24
2023-01-12T08:32:24.942Z,94.81
2023-01-12T08:33:24.931Z,94.60
2023-01-12T08:34:24.912Z,94.92
2023-01-12T08:35:24.901Z,94.60
2023-01-12T08:36:24.924Z,94.60
2023-01-12T08:37:24.879Z,94.76
2023-01-12T08:38:24.868Z,94.51
2023-01-12T08:39:24.869Z,94.40
2023-01-12T08:40:24.842Z,94.45
2023-01-12T08:41:24.845Z,94.51
2023-01-12T08:42:26.385Z,94.51
2023-01-12T08:43:24.808Z,94.20
2023-01-12T08:44:24.804Z,94.51
2023-01-12T08:45:24.792Z,94.20
2023-01-12T08:46:24.960Z,94.40
2023-01-12T08:47:24.766Z,94.30
2023-01-12T08:48:24.764Z,94.60
2023-01-12T08:49:24.751Z,93.93
2023-01-12T08:50:24.767Z,93.93
2023-01-12T08:51:24.746Z,94.40
2023-01-12T08:52:24.745Z,94.60
2023-01-12T08:53:24.764Z,94.71
2023-01-12T08:54:24.698Z,94.71
2023-01-12T08:55:24.685Z,94.71
2023-01-12T08:56:24.690Z,94.60
2023-01-12T08:57:24.662Z,94.51
2023-01-12T08:58:24.653Z,94.51
2023-01-12T08:59:24.637Z,94.60
2023-01-12T09:00:24.634Z,94.51
2023-01-12T09:01:24.700Z,94.46
2023-01-12T09:02:24.640Z,94.81
2023-01-12T09:03:24.609Z,94.77
2023-01-12T09:04:24.594Z,94.51
2023-01-12T09:05:24.581Z,94.67
2023-01-12T09:06:24.590Z,94.26
2023-01-12T09:07:24.563Z,94.71
2023-01-12T09:08:24.542Z,94.26
2023-01-12T09:09:24.539Z,94.60
2023-01-12T09:10:24.546Z,94.71
2023-01-12T09:11:24.531Z,94.60
2023-01-12T09:12:24.633Z,93.58
2023-01-12T09:13:25.500Z,94.09
2023-01-12T09:14:24.497Z,94.15
2023-01-12T09:15:24.485Z,93.43
2023-01-12T09:16:24.502Z,93.48
2023-01-12T09:17:24.479Z,93.64
2023-01-12T09:18:24.453Z,93.43
2023-01-12T09:19:24.430Z,93.58
2023-01-12T09:20:24.434Z,93.58
2023-01-12T09:21:24.441Z,93.33
2023-01-12T09:22:24.415Z,93.54
2023-01-12T09:23:24.413Z,93.54
2023-01-12T09:24:24.385Z,93.43
2023-01-12T09:25:24.384Z,93.43
2023-01-12T09:26:24.401Z,93.33
2023-01-12T09:27:24.373Z,93.43
2023-01-12T09:28:24.354Z,93.54
2023-01-12T09:29:24.357Z,93.02
2023-01-12T09:30:24.326Z,93.54
2023-01-12T09:31:24.412Z,93.33
2023-01-12T09:32:29.211Z,93.23
2023-01-12T09:33:26.294Z,92.71
2023-01-12T09:34:24.287Z,93.29
2023-01-12T09:35:24.280Z,93.12
2023-01-12T09:36:24.288Z,92.87
2023-01-12T09:37:24.269Z,93.02
2023-01-12T09:38:24.248Z,93.23
2023-01-12T09:39:28.458Z,92.97
2023-01-12T09:40:25.231Z,92.97
2023-01-12T09:41:24.224Z,93.18
2023-01-12T09:42:25.212Z,93.23
2023-01-12T09:43:24.202Z,93.18
2023-01-12T09:44:24.200Z,92.97
2023-01-12T09:45:24.176Z,93.08
2023-01-12T09:46:24.182Z,93.08
2023-01-12T09:47:24.157Z,93.02
2023-01-12T09:48:24.149Z,92.97
2023-01-12T09:49:24.142Z,93.18
2023-01-12T09:50:24.118Z,93.54
2023-01-12T09:51:24.122Z,93.54
2023-01-12T09:52:24.102Z,93.29
2023-01-12T09:53:24.099Z,92.87
2023-01-12T09:54:24.086Z,93.08
2023-01-12T09:55:24.073Z,93.59
2023-01-12T09:56:24.078Z,93.08
2023-01-12T09:57:29.151Z,93.70
2023-01-12T09:58:26.035Z,93.39
2023-01-12T09:59:24.079Z,93.49
2023-01-12T10:00:24.094Z,93.59
2023-01-12T10:01:29.771Z,93.49
2023-01-12T10:02:26.086Z,93.44
2023-01-12T10:03:25.040Z,93.59
2023-01-12T10:04:23.982Z,94.11
2023-01-12T10:05:31.438Z,94.31
2023-01-12T10:06:25.995Z,94.01
2023-01-12T10:07:23.941Z,94.01
2023-01-12T10:08:23.943Z,94.62
2023-01-12T10:09:23.924Z,94.31
2023-01-12T10:10:23.914Z,94.37
2023-01-12T10:11:23.914Z,94.31
2023-01-12T10:12:23.912Z,94.42
2023-01-12T10:13:23.878Z,94.52
2023-01-12T10:14:23.881Z,94.31
2023-01-12T10:15:23.867Z,94.31
2023-01-12T10:16:23.907Z,94.52
2023-01-12T10:17:23.850Z,94.52
2023-01-12T10:18:23.836Z,94.42
2023-01-12T10:19:23.817Z,94.48
2023-01-12T10:20:23.826Z,94.37
2023-01-12T10:21:23.845Z,94.31
2023-01-12T10:22:23.797Z,94.37
2023-01-12T10:23:23.785Z,94.48
2023-01-12T10:24:23.795Z,94.27
2023-01-12T10:25:23.755Z,94.48
2023-01-12T10:26:23.794Z,94.48
2023-01-12T10:27:23.748Z,94.27
2023-01-12T10:28:23.753Z,94.37
2023-01-12T10:29:23.725Z,94.37
2023-01-12T10:30:23.712Z,94.48
2023-01-12T10:31:23.784Z,94.58
2023-01-12T10:32:24.663Z,94.58
2023-01-12T10:33:23.679Z,94.58
2023-01-12T10:34:23.692Z,94.27
2023-01-12T10:35:23.652Z,94.58
2023-01-12T10:36:23.651Z,94.68
2023-01-12T10:37:23.648Z,94.17
2023-01-12T10:38:23.639Z,94.27
2023-01-12T10:39:23.605Z,94.27
2023-01-12T10:40:23.607Z,94.37
2023-01-12T10:41:23.598Z,94.58
2023-01-12T10:42:23.603Z,94.58
2023-01-12T10:43:23.573Z,94.48
2023-01-12T10:44:23.604Z,94.58
2023-01-12T10:45:23.550Z,94.17
2023-01-12T10:46:23.543Z,94.27
2023-01-12T10:47:23.558Z,94.27
2023-01-12T10:48:23.531Z,94.37
2023-01-12T10:49:23.522Z,94.27
2023-01-12T10:50:23.509Z,94.54
2023-01-12T10:51:23.486Z,94.54
2023-01-12T10:52:23.497Z,94.54
2023-01-12T10:53:23.469Z,94.54
2023-01-12T10:54:23.459Z,94.33
2023-01-12T10:55:23.452Z,94.02
2023-01-12T10:56:23.443Z,93.71
2023-01-12T10:57:23.456Z,93.61
2023-01-12T10:58:23.415Z,93.40
2023-01-12T10:59:23.407Z,93.40
2023-01-12T11:00:26.030Z,93.20
2023-01-12T11:01:24.526Z,93.46
2023-01-12T11:02:23.512Z,93.20
2023-01-12T11:03:23.359Z,93.05
2023-01-12T11:04:23.383Z,93.30
2023-01-12T11:05:23.344Z,93.57
2023-01-12T11:06:23.340Z,93.36
2023-01-12T11:07:23.354Z,93.51
2023-01-12T11:08:23.343Z,93.46
2023-01-12T11:09:23.314Z,93.30
2023-01-12T11:10:23.298Z,93.67
2023-01-12T11:11:23.279Z,93.51
2023-01-12T11:12:23.295Z,93.46
2023-01-12T11:13:23.274Z,93.40
2023-01-12T11:14:24.359Z,93.46
2023-01-12T11:15:23.254Z,93.40
2023-01-12T11:16:23.288Z,93.30
2023-01-12T11:17:23.246Z,93.46
2023-01-12T11:18:23.217Z,93.36
2023-01-12T11:19:24.214Z,93.67
2023-01-12T11:20:23.201Z,93.36
2023-01-12T11:21:23.201Z,93.46
2023-01-12T11:22:23.204Z,93.51
2023-01-12T11:23:23.173Z,94.54
2023-01-12T11:24:23.178Z,93.98
2023-01-12T11:25:23.155Z,94.29
2023-01-12T11:26:23.148Z,94.29
2023-01-12T11:27:23.145Z,94.29
2023-01-12T11:28:23.121Z,94.39
2023-01-12T11:29:23.113Z,94.49
2023-01-12T11:30:23.109Z,94.18
2023-01-12T11:31:23.086Z,94.18
2023-01-12T11:32:23.099Z,94.39
2023-01-12T11:33:23.076Z,94.18
2023-01-12T11:34:23.056Z,94.18
2023-01-12T11:35:23.057Z,94.29
2023-01-12T11:36:23.056Z,94.39
2023-01-12T11:37:23.058Z,94.18
2023-01-12T11:38:23.028Z,94.18
2023-01-12T11:39:23.005Z,93.98
2023-01-12T11:40:23.011Z,94.18
2023-01-12T11:41:22.993Z,93.46
2023-01-12T11:42:22.991Z,93.63
2023-01-12T11:43:22.963Z,94.08
2023-01-12T11:44:22.959Z,94.34
2023-01-12T11:45:22.950Z,93.93
2023-01-12T11:46:22.980Z,94.08
2023-01-12T11:47:22.957Z,93.67
2023-01-12T11:48:22.938Z,93.63
2023-01-12T11:49:22.914Z,93.87
2023-01-12T11:50:22.895Z,94.04
2023-01-12T11:51:22.890Z,93.98
2023-01-12T11:52:22.901Z,93.87
2023-01-12T11:53:22.869Z,94.04
2023-01-12T11:54:22.870Z,93.83
2023-01-12T11:55:22.844Z,94.24
2023-01-12T11:56:22.837Z,94.29
2023-01-12T11:57:22.848Z,94.24
2023-01-12T11:58:22.820Z,94.49
2023-01-12T11:59:22.801Z,94.55
2023-01-12T12:00:22.801Z,94.34
2023-01-12T12:01:22.912Z,94.55
2023-01-12T12:02:22.834Z,94.65
2023-01-12T12:03:22.826Z,94.65
2023-01-12T12:04:22.770Z,94.45
2023-01-12T12:05:22.754Z,94.24
2023-01-12T12:06:22.755Z,94.24
2023-01-12T12:07:22.753Z,94.65
2023-01-12T12:08:22.715Z,94.24
2023-01-12T12:09:22.716Z,94.34
2023-01-12T12:10:22.701Z,94.24
2023-01-12T12:11:22.682Z,94.65
2023-01-12T12:12:22.700Z,94.14
2023-01-12T12:13:22.672Z,94.65
2023-01-12T12:14:22.668Z,94.34
2023-01-12T12:15:22.650Z,94.14
2023-01-12T12:16:22.647Z,94.24
2023-01-12T12:17:22.668Z,94.24
2023-01-12T12:18:22.631Z,94.65
2023-01-12T12:19:22.608Z,94.45
2023-01-12T12:20:22.597Z,94.55
2023-01-12T12:21:22.593Z,94.65
2023-01-12T12:22:22.597Z,94.76
2023-01-12T12:23:22.648Z,94.45
2023-01-12T12:24:22.559Z,94.96
2023-01-12T12:25:22.544Z,94.85
2023-01-12T12:26:22.525Z,94.96
2023-01-12T12:27:22.543Z,95.06
2023-01-12T12:28:22.518Z,94.96
2023-01-12T12:29:22.508Z,94.85
2023-01-12T12:30:22.495Z,94.55
2023-01-12T12:31:22.511Z,94.45
2023-01-12T12:32:22.523Z,94.34
2023-01-12T12:33:22.469Z,94.85
2023-01-12T12:34:22.448Z,94.85
2023-01-12T12:35:22.468Z,94.24
2023-01-12T12:36:22.439Z,94.14
2023-01-12T12:37:22.448Z,94.65
2023-01-12T12:38:22.409Z,94.85
2023-01-12T12:39:22.407Z,94.85
2023-01-12T12:40:22.388Z,94.85
2023-01-12T12:41:22.393Z,94.96
2023-01-12T12:42:22.393Z,94.96
2023-01-12T12:43:22.367Z,95.68
2023-01-12T12:44:22.355Z,95.17
2023-01-12T12:45:22.353Z,95.27
2023-01-12T12:46:22.369Z,95.47
2023-01-12T12:47:22.347Z,95.37
2023-01-12T12:48:22.317Z,95.57
2023-01-12T12:49:22.325Z,95.32
2023-01-12T12:50:22.300Z,95.74
2023-01-12T12:51:22.288Z,95.64
2023-01-12T12:52:22.301Z,95.32